Alvwood, Minnesota
Current Conditions -  °F | °C
As of 2:29 AM on Saturday 20 Dec 2014 (Local Time) from KVWU Reporting Station
Light Snow Light Snow  
Wind Chill: 27°   Ceiling: 800
Heat Index: 27°   Visibility: 4mi
Dew Point: 25°   Wind: 0mph
Humidity: 93%   Direction: NA
Pressure: 30.04"   Gusts: NA
Location:  47.7306°N, 94.3762°W
Report Text: KVWU 200829Z AUTO 00000KT 4SM -SN OVC008 M03/M04 A3004 RMK AO2
Loading
Personal Weather Stations






























Interactive Weather Map New forecast layout! Learn more

10-Day Weather Forecast

Advertisements
Track Severe Weather on mobile